Time;durP1;ratioP1;P1;durP2;ratioP2;P2;SDS_P1;SDS_P2;PMS_P1;PMS_P2;Temp;Humidity;BMP_temperature;BMP_pressure;BME280_temperature;BME280_humidity;BME280_pressure;Samples;Min_cycle;Max_cycle;Signal;HPM_P1;HPM_P2
2021/06/14 00:00:16;;;;;;;13.00;8.13;;;;;;;14.29;80.89;101975.31;4992081;28;20042;-86
2021/06/14 00:02:43;;;;;;;14.32;8.20;;;;;;;14.23;81.31;101972.22;5005582;28;20059;-85
2021/06/14 00:05:14;;;;;;;12.77;8.30;;;;;;;14.20;81.37;101974.41;5007805;28;20038;-87
2021/06/14 00:07:39;;;;;;;13.52;8.05;;;;;;;14.15;81.55;101972.16;4993960;28;20069;-87
2021/06/14 00:10:08;;;;;;;13.93;8.38;;;;;;;14.02;82.06;101974.47;4981799;28;20070;-87
2021/06/14 00:12:33;;;;;;;12.68;8.27;;;;;;;13.93;82.36;101973.56;5011806;28;20063;-84
2021/06/14 00:14:59;;;;;;;14.02;8.38;;;;;;;13.96;82.06;101970.53;5017569;28;20041;-85
2021/06/14 00:17:24;;;;;;;13.20;9.35;;;;;;;13.89;82.34;101968.63;5003495;28;20038;-84
2021/06/14 00:19:49;;;;;;;13.63;8.85;;;;;;;13.88;82.32;101967.78;5019730;28;20053;-85
2021/06/14 00:22:17;;;;;;;13.30;8.50;;;;;;;13.88;82.26;101966.94;5012113;28;20034;-85
2021/06/14 00:24:42;;;;;;;16.10;8.32;;;;;;;13.86;82.42;101963.53;5015058;28;20054;-86
2021/06/14 00:27:08;;;;;;;11.00;8.32;;;;;;;13.79;82.87;101967.88;5011832;28;20146;-87
2021/06/14 00:29:34;;;;;;;11.00;8.15;;;;;;;13.73;82.64;101964.81;4991380;28;20079;-84
2021/06/14 00:31:59;;;;;;;14.80;8.93;;;;;;;13.68;83.15;101955.50;4997164;28;20050;-87
2021/06/14 00:34:25;;;;;;;14.70;8.43;;;;;;;13.65;83.42;101959.34;5018619;28;20048;-84
2021/06/14 00:36:51;;;;;;;12.93;8.90;;;;;;;13.65;83.54;101962.03;5018692;28;20049;-87
2021/06/14 00:39:16;;;;;;;12.85;9.13;;;;;;;13.64;83.57;101946.03;5026782;28;20268;-84
2021/06/14 00:41:41;;;;;;;13.63;8.60;;;;;;;13.61;83.57;101952.56;5015575;28;20125;-88
2021/06/14 00:44:07;;;;;;;13.02;9.30;;;;;;;13.58;83.61;101949.31;5016340;28;20065;-84
2021/06/14 00:46:32;;;;;;;17.80;9.35;;;;;;;13.56;83.61;101946.78;5005789;28;20184;-87
2021/06/14 00:48:58;;;;;;;16.50;9.43;;;;;;;13.56;83.86;101951.34;5018523;28;20419;-84
2021/06/14 00:51:23;;;;;;;15.07;9.80;;;;;;;13.52;84.02;101950.78;5011826;28;21017;-89
2021/06/14 00:53:55;;;;;;;15.18;9.35;;;;;;;13.45;84.03;101947.03;5026253;28;20042;-87
2021/06/14 00:56:23;;;;;;;14.00;9.15;;;;;;;13.44;83.86;101945.34;5005990;28;20068;-83
2021/06/14 00:58:48;;;;;;;16.30;9.27;;;;;;;13.42;84.12;101948.19;5029177;28;20072;-87
2021/06/14 01:01:14;;;;;;;13.00;9.32;;;;;;;13.40;84.23;101949.34;5035120;28;20448;-85
2021/06/14 01:03:39;;;;;;;14.63;9.80;;;;;;;13.28;84.44;101937.94;5020345;28;20045;-86
2021/06/14 01:06:08;;;;;;;13.63;8.85;;;;;;;13.27;84.40;101941.66;5032564;28;20069;-86
2021/06/14 01:08:37;;;;;;;15.05;10.40;;;;;;;13.26;84.13;101934.56;5015617;28;20636;-85
2021/06/14 01:11:26;;;;;;;12.40;9.40;;;;;;;13.18;84.90;101927.22;4993769;28;20057;-89
2021/06/14 01:14:02;;;;;;;16.23;9.48;;;;;;;13.16;84.66;101923.81;5029011;28;20042;-84
2021/06/14 01:17:13;;;;;;;13.77;9.70;;;;;;;13.09;85.01;101920.91;5018190;28;20033;-85
2021/06/14 01:19:59;;;;;;;15.77;9.98;;;;;;;13.04;85.43;101923.19;4992795;28;20541;-84
2021/06/14 01:22:49;;;;;;;15.70;10.02;;;;;;;13.04;85.30;101920.50;5034423;28;20046;-85
2021/06/14 01:25:32;;;;;;;15.27;10.63;;;;;;;13.06;85.57;101917.66;5017460;28;20050;-88
2021/06/14 01:28:00;;;;;;;15.00;9.80;;;;;;;13.03;85.05;101916.13;5025006;28;20497;-88
2021/06/14 01:30:29;;;;;;;17.27;10.65;;;;;;;13.04;85.03;101912.44;5013974;28;20060;-84
2021/06/14 01:32:55;;;;;;;19.42;9.80;;;;;;;12.98;85.09;101909.50;5019804;28;20065;-83
2021/06/14 01:35:37;;;;;;;16.67;10.40;;;;;;;12.95;85.26;101907.13;5018717;28;20775;-84
2021/06/14 01:38:05;;;;;;;17.27;10.32;;;;;;;12.91;85.43;101906.56;5016286;28;20087;-82
2021/06/14 01:40:32;;;;;;;16.42;11.05;;;;;;;12.88;85.48;101904.16;5026472;28;20041;-83
2021/06/14 01:43:02;;;;;;;14.55;10.18;;;;;;;12.81;85.78;101898.53;5023593;28;20494;-84
2021/06/14 01:45:29;;;;;;;17.88;10.55;;;;;;;12.80;85.67;101904.06;5019303;28;20049;-82
2021/06/14 01:47:57;;;;;;;15.75;10.38;;;;;;;12.80;85.81;101896.88;5021352;28;20518;-86
2021/06/14 01:50:26;;;;;;;14.80;10.55;;;;;;;12.74;86.08;101888.53;5007647;28;20045;-84
2021/06/14 01:52:52;;;;;;;15.00;10.85;;;;;;;12.74;85.84;101883.97;5015822;28;20053;-86
2021/06/14 01:55:18;;;;;;;15.95;11.25;;;;;;;12.67;86.21;101876.69;5037373;28;20042;-84
2021/06/14 01:57:45;;;;;;;14.57;10.70;;;;;;;12.62;86.40;101867.19;5010794;28;20133;-87
2021/06/14 02:00:11;;;;;;;17.08;11.10;;;;;;;12.62;86.45;101869.03;5011736;28;20087;-83
2021/06/14 02:02:38;;;;;;;17.60;11.93;;;;;;;12.62;86.48;101869.88;5017061;28;20162;-86
2021/06/14 02:05:05;;;;;;;15.07;10.65;;;;;;;12.60;86.31;101869.22;5029819;28;20041;-86
2021/06/14 02:07:31;;;;;;;18.77;11.23;;;;;;;12.62;86.13;101877.13;5011324;28;20077;-83
2021/06/14 02:09:57;;;;;;;15.73;11.05;;;;;;;12.57;86.40;101879.41;5019621;28;20034;-83
2021/06/14 02:12:26;;;;;;;18.55;12.10;;;;;;;12.52;86.52;101874.50;5031635;28;20458;-83
2021/06/14 02:14:52;;;;;;;18.38;10.85;;;;;;;12.51;86.27;101875.47;5022342;28;20046;-85
2021/06/14 02:17:25;;;;;;;18.25;10.85;;;;;;;12.42;86.46;101879.06;5007647;28;20250;-83
2021/06/14 02:19:50;;;;;;;17.27;10.98;;;;;;;12.41;86.86;101869.31;5001856;28;20042;-86
2021/06/14 02:22:18;;;;;;;18.25;11.35;;;;;;;12.38;87.07;101870.47;5020869;28;20293;-86
2021/06/14 02:24:44;;;;;;;18.10;11.40;;;;;;;12.38;87.00;101864.22;5013017;28;20117;-80
2021/06/14 02:27:11;;;;;;;16.00;11.52;;;;;;;12.36;87.01;101864.38;5010669;28;20053;-83
2021/06/14 02:29:37;;;;;;;15.73;11.15;;;;;;;12.34;86.91;101854.75;5022259;28;20055;-82
2021/06/14 02:32:03;;;;;;;16.67;11.55;;;;;;;12.32;86.79;101854.06;5019432;28;20037;-88
2021/06/14 02:34:29;;;;;;;15.52;11.65;;;;;;;12.29;87.18;101851.69;5029940;28;20072;-84
2021/06/14 02:36:55;;;;;;;15.77;11.52;;;;;;;12.27;87.06;101845.59;5019673;28;20048;-80
2021/06/14 02:39:32;;;;;;;16.40;10.43;;;;;;;12.19;87.63;101840.94;5017797;28;20095;-87
2021/06/14 02:41:58;;;;;;;17.00;11.50;;;;;;;12.11;87.61;101841.72;5031063;28;20036;-86
2021/06/14 02:44:26;;;;;;;19.35;12.00;;;;;;;12.08;87.71;101835.75;5019290;28;20193;-84
2021/06/14 02:46:55;;;;;;;16.93;11.47;;;;;;;12.07;87.84;101836.75;5028959;28;20041;-82
2021/06/14 02:49:22;;;;;;;16.88;11.88;;;;;;;12.05;87.94;101838.75;5012965;28;20288;-85
2021/06/14 02:51:51;;;;;;;17.13;11.55;;;;;;;12.04;87.71;101837.06;5016669;28;20045;-84
2021/06/14 02:54:58;;;;;;;16.95;10.75;;;;;;;12.01;87.52;101837.38;5016397;28;20498;-84
2021/06/14 02:57:27;;;;;;;18.33;11.80;;;;;;;11.90;87.99;101839.22;5028979;28;20471;-85
2021/06/14 02:59:54;;;;;;;16.52;11.23;;;;;;;11.94;88.02;101835.28;5029935;28;20048;-82
2021/06/14 03:02:22;;;;;;;20.05;12.15;;;;;;;11.99;87.48;101839.34;5015478;28;20103;-85
2021/06/14 03:04:47;;;;;;;18.35;12.00;;;;;;;11.96;87.74;101832.41;5009574;28;20275;-82
2021/06/14 03:07:14;;;;;;;17.13;11.25;;;;;;;11.98;87.80;101835.81;5030412;28;20041;-86
2021/06/14 03:09:40;;;;;;;19.63;11.52;;;;;;;12.01;87.38;101840.06;5023578;28;20033;-86
2021/06/14 03:12:06;;;;;;;19.90;12.10;;;;;;;11.94;87.63;101842.50;5010591;28;20061;-84
2021/06/14 03:14:33;;;;;;;18.05;11.80;;;;;;;11.92;87.45;101829.19;5014123;28;20430;-84
2021/06/14 03:16:59;;;;;;;19.27;11.80;;;;;;;11.91;87.47;101830.19;5035259;28;20091;-83
2021/06/14 03:19:26;;;;;;;16.35;11.27;;;;;;;11.85;87.63;101828.06;5026279;28;20420;-84
2021/06/14 03:21:53;;;;;;;17.83;11.75;;;;;;;11.89;87.29;101832.16;5011584;28;20037;-83
2021/06/14 03:24:19;;;;;;;19.83;12.18;;;;;;;11.91;87.25;101834.69;5018848;28;20394;-80
2021/06/14 03:26:46;;;;;;;18.73;12.18;;;;;;;11.87;86.90;101823.38;5009323;28;20045;-83
2021/06/14 03:29:19;;;;;;;16.10;11.23;;;;;;;11.92;87.24;101826.50;5026309;28;20041;-81
2021/06/14 03:31:47;;;;;;;16.45;11.63;;;;;;;11.91;87.02;101834.69;5003207;28;20042;-81
2021/06/14 03:34:13;;;;;;;19.80;12.32;;;;;;;11.92;87.18;101831.03;5017623;28;20583;-81
2021/06/14 03:36:40;;;;;;;18.65;12.73;;;;;;;11.91;87.33;101824.81;5016360;28;20049;-81
2021/06/14 03:39:06;;;;;;;18.38;11.98;;;;;;;11.94;87.00;101829.88;5018415;28;20044;-79
2021/06/14 03:41:32;;;;;;;18.42;11.93;;;;;;;11.86;87.34;101826.25;5024557;28;20126;-82
2021/06/14 03:44:01;;;;;;;19.27;11.63;;;;;;;11.85;87.27;101825.38;5021337;28;20085;-83
2021/06/14 03:46:27;;;;;;;15.98;11.45;;;;;;;11.84;87.93;101830.88;5025431;28;20406;-82
2021/06/14 03:48:53;;;;;;;20.65;12.13;;;;;;;11.88;87.12;101819.72;5015766;28;20041;-82
2021/06/14 03:51:19;;;;;;;17.42;12.45;;;;;;;11.89;87.33;101831.31;5000235;28;20129;-82
2021/06/14 03:53:56;;;;;;;18.48;11.90;;;;;;;11.92;87.36;101829.19;5030799;28;20502;-84
2021/06/14 03:56:22;;;;;;;18.45;11.55;;;;;;;11.93;87.29;101825.47;5035427;28;20045;-84
2021/06/14 03:58:48;;;;;;;17.85;12.57;;;;;;;11.97;87.04;101823.38;5010387;28;20046;-84
2021/06/14 04:01:13;;;;;;;15.77;11.43;;;;;;;12.01;87.10;101830.13;5015494;28;20247;-82
2021/06/14 04:03:39;;;;;;;17.70;11.98;;;;;;;12.04;86.98;101823.63;5011825;28;20050;-83
2021/06/14 04:06:05;;;;;;;18.20;12.15;;;;;;;12.07;86.68;101821.47;5017085;28;20132;-82
2021/06/14 04:08:31;;;;;;;19.52;12.98;;;;;;;12.10;87.03;101821.16;5020606;28;20186;-82
2021/06/14 04:10:57;;;;;;;17.80;12.07;;;;;;;12.16;86.57;101823.25;5017402;28;20042;-86
2021/06/14 04:13:23;;;;;;;17.27;11.25;;;;;;;12.21;86.78;101821.97;5017242;28;20310;-82
2021/06/14 04:15:48;;;;;;;19.90;12.38;;;;;;;12.25;86.83;101824.19;5017302;28;20053;-85
2021/06/14 04:18:13;;;;;;;18.10;12.00;;;;;;;12.41;87.40;101818.16;5018574;28;20052;-87
2021/06/14 04:20:39;;;;;;;15.63;11.73;;;;;;;12.42;86.09;101811.78;5041693;28;20403;-82
2021/06/14 04:23:04;;;;;;;20.60;11.70;;;;;;;12.42;86.34;101811.78;5013467;28;20046;-85
2021/06/14 04:25:31;;;;;;;15.13;10.95;;;;;;;12.49;85.70;101804.81;5033867;28;20041;-84
2021/06/14 04:27:57;;;;;;;16.73;10.93;;;;;;;12.51;85.99;101801.94;5017459;28;20115;-82
2021/06/14 04:30:23;;;;;;;15.95;10.95;;;;;;;12.61;86.10;101813.50;5022435;28;20054;-84
2021/06/14 04:32:50;;;;;;;15.75;11.15;;;;;;;12.76;84.42;101813.81;5026004;28;20042;-86
2021/06/14 04:35:15;;;;;;;17.70;10.38;;;;;;;12.85;84.71;101813.72;5028237;28;20142;-82
2021/06/14 04:37:41;;;;;;;18.08;10.43;;;;;;;12.98;83.77;101802.56;5031893;28;20473;-82
2021/06/14 04:40:08;;;;;;;16.15;10.35;;;;;;;13.04;83.86;101801.94;5010857;28;20034;-84
2021/06/14 04:42:35;;;;;;;16.45;10.40;;;;;;;13.16;82.96;101805.25;5033637;28;20083;-86
2021/06/14 04:45:04;;;;;;;18.08;10.63;;;;;;;13.36;82.23;101807.78;5026496;28;20038;-83
2021/06/14 04:47:30;;;;;;;17.60;10.07;;;;;;;13.47;81.09;101804.81;5039534;28;20057;-83
2021/06/14 04:50:00;;;;;;;17.48;11.10;;;;;;;13.55;81.37;101802.16;5028252;28;20041;-86
2021/06/14 04:52:26;;;;;;;18.92;10.95;;;;;;;13.66;81.00;101801.88;5032658;28;20049;-87
2021/06/14 04:54:52;;;;;;;16.80;10.13;;;;;;;13.80;80.15;101796.91;5016249;28;20042;-86
2021/06/14 04:57:17;;;;;;;17.35;9.88;;;;;;;13.90;80.28;101798.50;5014930;28;20788;-81
2021/06/14 04:59:44;;;;;;;15.85;10.10;;;;;;;14.00;79.86;101798.34;5020224;28;20148;-83
2021/06/14 05:02:09;;;;;;;15.50;9.90;;;;;;;14.10;79.53;101795.53;5033327;28;20053;-89
2021/06/14 05:04:34;;;;;;;18.17;9.85;;;;;;;14.23;78.08;101799.44;5003513;28;20109;-86
2021/06/14 05:07:00;;;;;;;19.27;10.05;;;;;;;14.31;78.98;101795.09;5009011;28;20045;-84
2021/06/14 05:09:25;;;;;;;16.35;10.20;;;;;;;14.37;79.19;101799.84;5020831;28;20046;-83
2021/06/14 05:11:50;;;;;;;17.35;10.52;;;;;;;14.49;78.21;101793.09;5027098;28;20038;-84
2021/06/14 05:14:16;;;;;;;16.50;9.20;;;;;;;14.62;76.91;101787.28;5035426;28;20047;-85
2021/06/14 05:16:43;;;;;;;17.23;9.45;;;;;;;14.72;76.39;101797.91;5001409;28;20042;-81
2021/06/14 05:19:09;;;;;;;16.38;9.98;;;;;;;14.84;75.16;101791.16;5004102;28;20054;-83
2021/06/14 05:21:35;;;;;;;17.55;9.73;;;;;;;14.92;75.01;101793.88;4988215;28;20041;-84
2021/06/14 05:24:00;;;;;;;16.67;9.07;;;;;;;15.02;75.04;101802.66;5027050;28;20034;-86
2021/06/14 05:26:26;;;;;;;13.48;8.73;;;;;;;15.16;74.30;101805.69;5019808;28;20042;-82
2021/06/14 05:28:51;;;;;;;16.85;8.93;;;;;;;15.29;73.31;101811.44;5012752;28;20044;-85
2021/06/14 05:31:17;;;;;;;16.77;8.98;;;;;;;15.43;73.38;101804.50;5030656;28;20045;-84
2021/06/14 05:33:42;;;;;;;13.35;8.25;;;;;;;15.56;72.47;101808.38;5031733;28;20037;-85
2021/06/14 05:36:07;;;;;;;15.30;8.23;;;;;;;15.68;71.42;101808.00;5018319;28;20576;-86
2021/06/14 05:38:33;;;;;;;13.82;8.52;;;;;;;15.81;71.44;101810.19;5039874;28;20041;-84
2021/06/14 05:40:58;;;;;;;13.05;8.30;;;;;;;15.94;70.98;101814.03;5024261;28;20046;-84
2021/06/14 05:43:24;;;;;;;17.58;8.35;;;;;;;16.03;69.93;101814.84;5031286;28;20037;-85
2021/06/14 05:45:49;;;;;;;14.25;7.93;;;;;;;16.14;69.51;101821.72;5022621;28;20119;-82
2021/06/14 05:48:14;;;;;;;16.75;7.82;;;;;;;16.24;69.04;101827.78;5006351;28;20172;-83
2021/06/14 05:50:40;;;;;;;14.50;7.78;;;;;;;16.34;68.85;101833.84;5024492;28;20033;-86
2021/06/14 05:53:06;;;;;;;14.27;7.07;;;;;;;16.40;67.79;101833.13;5017089;28;20057;-86
2021/06/14 05:55:33;;;;;;;15.93;7.95;;;;;;;16.52;67.39;101819.19;5013833;28;20041;-83
2021/06/14 05:57:58;;;;;;;11.07;7.18;;;;;;;16.65;67.87;101825.66;5018923;28;20043;-83
2021/06/14 06:00:25;;;;;;;13.20;6.47;;;;;;;16.73;67.12;101818.53;4996005;28;20049;-83
2021/06/14 06:03:01;;;;;;;15.05;6.85;;;;;;;16.80;66.64;101811.38;4992671;28;22390;-83
2021/06/14 06:05:26;;;;;;;14.90;7.50;;;;;;;16.90;66.86;101815.53;5004143;28;20379;-83
2021/06/14 06:07:52;;;;;;;11.52;6.40;;;;;;;17.04;66.18;101810.38;5014769;28;20425;-83
2021/06/14 06:10:18;;;;;;;9.43;6.28;;;;;;;17.12;65.51;101807.59;5018665;28;20540;-83
2021/06/14 06:12:43;;;;;;;11.65;5.82;;;;;;;17.22;65.50;101810.03;5042233;28;20052;-82
2021/06/14 06:15:12;;;;;;;13.52;6.70;;;;;;;17.32;64.78;101811.47;5031341;28;20042;-84
2021/06/14 06:17:37;;;;;;;11.52;6.63;;;;;;;17.48;64.97;101821.31;5019478;28;20510;-83
2021/06/14 06:20:11;;;;;;;9.23;5.93;;;;;;;17.65;64.75;101813.84;5001333;28;20061;-83
2021/06/14 06:22:38;;;;;;;9.75;6.28;;;;;;;17.77;63.44;101812.34;5018885;28;20165;-83
2021/06/14 06:25:25;;;;;;;11.68;5.80;;;;;;;17.87;63.68;101808.56;5021482;28;20482;-82
2021/06/14 06:27:51;;;;;;;11.57;5.72;;;;;;;17.96;62.48;101807.44;5005444;28;20052;-83
2021/06/14 06:30:21;;;;;;;9.95;5.32;;;;;;;18.03;61.87;101802.91;5007745;28;20037;-83
2021/06/14 06:32:47;;;;;;;9.52;5.28;;;;;;;18.11;61.84;101794.66;5012567;28;20081;-83
2021/06/14 06:35:13;;;;;;;10.50;5.85;;;;;;;18.23;61.66;101800.44;5031780;28;20136;-83
2021/06/14 06:37:39;;;;;;;10.40;5.47;;;;;;;18.37;61.79;101793.31;5018048;28;20441;-83
2021/06/14 06:40:06;;;;;;;17.65;5.63;;;;;;;18.46;61.12;101789.44;5013145;28;20191;-83
2021/06/14 06:42:31;;;;;;;10.55;5.07;;;;;;;18.55;60.07;101790.16;5029675;28;20050;-83
2021/06/14 06:44:57;;;;;;;10.60;5.38;;;;;;;18.58;59.43;101784.31;5031159;28;20037;-83
2021/06/14 06:47:22;;;;;;;10.18;5.22;;;;;;;18.63;58.89;101779.16;5028677;28;20088;-83
2021/06/14 06:49:48;;;;;;;8.35;4.75;;;;;;;18.65;58.96;101777.94;5012571;28;20063;-83
2021/06/14 06:52:13;;;;;;;7.93;4.75;;;;;;;18.75;58.87;101774.91;5029111;28;20103;-83
2021/06/14 06:54:39;;;;;;;7.85;4.88;;;;;;;18.87;58.67;101777.94;5025654;28;20049;-84
2021/06/14 06:57:05;;;;;;;8.85;4.78;;;;;;;18.90;57.86;101766.69;4999983;28;20042;-83
2021/06/14 06:59:30;;;;;;;10.30;4.80;;;;;;;18.94;57.80;101770.69;5033100;28;20398;-83
2021/06/14 07:01:56;;;;;;;13.40;5.30;;;;;;;19.00;58.01;101769.09;4986193;28;20045;-83
2021/06/14 07:04:22;;;;;;;10.68;5.45;;;;;;;19.03;57.65;101774.13;5009045;28;20717;-83
2021/06/14 07:06:47;;;;;;;11.63;5.45;;;;;;;19.07;57.11;101759.91;5008799;28;20045;-83
2021/06/14 07:09:13;;;;;;;9.85;4.88;;;;;;;19.16;57.41;101758.75;5013061;28;20216;-83
2021/06/14 07:11:39;;;;;;;10.80;4.97;;;;;;;19.28;57.85;101752.78;4999382;28;20068;-83
2021/06/14 07:14:05;;;;;;;10.68;5.63;;;;;;;19.41;57.60;101752.00;5018151;28;20148;-83
2021/06/14 07:16:31;;;;;;;8.25;4.90;;;;;;;19.45;56.63;101750.56;5004490;28;20398;-83
2021/06/14 07:18:57;;;;;;;12.43;5.22;;;;;;;19.55;56.77;101754.59;5007500;28;20065;-83
2021/06/14 07:21:23;;;;;;;13.15;5.50;;;;;;;19.66;56.72;101744.25;5022053;28;20403;-83
2021/06/14 07:23:50;;;;;;;7.07;4.80;;;;;;;19.79;56.58;101750.59;5019174;28;20033;-83
2021/06/14 07:26:16;;;;;;;8.25;4.43;;;;;;;19.88;56.55;101740.38;5030024;28;20064;-83
2021/06/14 07:28:42;;;;;;;9.82;5.13;;;;;;;19.99;55.93;101744.38;5014078;28;20069;-83
2021/06/14 07:31:10;;;;;;;9.40;5.45;;;;;;;20.02;55.81;101739.38;5016500;28;20046;-83
2021/06/14 07:33:36;;;;;;;8.80;4.60;;;;;;;20.16;56.17;101740.25;5035518;28;20046;-83
2021/06/14 07:36:06;;;;;;;12.27;4.68;;;;;;;20.29;54.96;101734.84;5017112;28;20061;-83
2021/06/14 07:38:33;;;;;;;10.32;4.35;;;;;;;20.45;55.46;101735.50;5033970;28;20037;-83
2021/06/14 07:40:59;;;;;;;7.28;4.22;;;;;;;20.51;55.15;101730.09;5012864;28;20043;-83
2021/06/14 07:43:25;;;;;;;10.77;4.97;;;;;;;20.56;54.77;101724.00;5016288;28;20046;-83
2021/06/14 07:45:51;;;;;;;9.20;4.78;;;;;;;20.61;55.58;101726.97;5021239;28;20037;-83
2021/06/14 07:48:17;;;;;;;8.70;4.22;;;;;;;20.67;53.99;101711.66;4998527;28;20046;-83
2021/06/14 07:50:45;;;;;;;10.23;5.07;;;;;;;20.74;53.78;101712.50;5010460;28;20046;-84
2021/06/14 07:53:11;;;;;;;9.77;4.32;;;;;;;20.82;53.92;101716.91;5011789;28;20091;-83
2021/06/14 07:55:37;;;;;;;7.40;4.53;;;;;;;20.81;52.49;101705.16;5015910;28;20045;-83
2021/06/14 07:58:06;;;;;;;15.77;4.97;;;;;;;20.78;52.67;101708.31;5015358;28;20042;-83
2021/06/14 08:00:31;;;;;;;8.82;4.20;;;;;;;20.74;52.32;101709.75;4992164;28;20061;-84
2021/06/14 08:02:57;;;;;;;9.52;4.55;;;;;;;20.73;52.68;101699.91;4996361;28;20279;-83
2021/06/14 08:05:23;;;;;;;7.93;4.35;;;;;;;20.85;52.10;101700.13;5035710;28;20496;-84
2021/06/14 08:07:49;;;;;;;9.57;4.30;;;;;;;20.92;51.82;101701.81;5034855;28;20083;-83
2021/06/14 08:10:17;;;;;;;8.40;4.30;;;;;;;21.04;52.26;101690.25;5017031;28;20033;-83
2021/06/14 08:12:47;;;;;;;10.82;4.28;;;;;;;21.15;52.32;101690.44;5023112;28;20069;-83
2021/06/14 08:15:32;;;;;;;9.98;4.88;;;;;;;21.25;51.44;101690.00;5014602;28;20041;-83
2021/06/14 08:25:32;;;;;;;8.30;4.35;;;;;;;21.58;50.89;101651.72;5021687;28;20091;-83
2021/06/14 08:27:58;;;;;;;8.65;4.20;;;;;;;21.74;50.22;101646.78;5030974;28;20077;-84
2021/06/14 08:30:25;;;;;;;12.73;5.10;;;;;;;21.78;50.33;101645.28;5016687;28;20062;-84
2021/06/14 08:32:51;;;;;;;10.07;4.63;;;;;;;21.84;50.16;101639.81;5034595;28;20042;-84
2021/06/14 08:35:20;;;;;;;12.80;4.68;;;;;;;21.88;49.31;101639.38;5013520;28;20242;-84
2021/06/14 08:37:49;;;;;;;9.95;4.38;;;;;;;22.04;50.00;101642.44;5012026;28;20091;-84
2021/06/14 08:40:16;;;;;;;;;;;;;;;22.14;49.01;101633.72;5029536;28;20050;-84
2021/06/14 08:42:41;;;;;;;8.27;4.40;;;;;;;21.97;48.67;101632.59;5014767;28;19917;-84
2021/06/14 08:45:10;;;;;;;6.43;3.88;;;;;;;22.14;50.47;101633.72;5022962;28;20091;-84
2021/06/14 08:47:37;;;;;;;9.75;4.50;;;;;;;22.33;49.29;101623.75;5018436;28;20045;-84
2021/06/14 08:50:05;;;;;;;9.60;4.07;;;;;;;22.36;48.47;101622.47;5031648;28;20060;-84
2021/06/14 08:52:31;;;;;;;7.95;3.72;;;;;;;22.38;48.26;101628.53;5019915;28;20482;-84
2021/06/14 08:54:56;;;;;;;8.77;4.40;;;;;;;22.35;48.40;101645.41;5021662;28;20057;-84
2021/06/14 08:57:22;;;;;;;11.95;4.18;;;;;;;22.32;48.48;101654.03;5006699;28;20490;-84
2021/06/14 08:59:48;;;;;;;11.82;4.40;;;;;;;22.43;47.68;101650.59;5026132;28;20048;-84
2021/06/14 09:02:14;;;;;;;9.40;4.15;;;;;;;22.57;48.41;101654.06;5022615;28;20057;-84
2021/06/14 09:04:39;;;;;;;9.23;4.53;;;;;;;22.65;46.64;101651.06;5010936;28;21212;-84
2021/06/14 09:07:05;;;;;;;7.72;4.25;;;;;;;22.66;46.70;101650.81;5020913;28;20397;-84
2021/06/14 09:09:32;;;;;;;6.15;4.07;;;;;;;22.65;46.53;101649.16;5022759;28;20053;-84
2021/06/14 09:12:01;;;;;;;8.93;4.13;;;;;;;22.74;47.29;101649.72;5010500;28;20052;-84
2021/06/14 09:14:30;;;;;;;9.50;4.03;;;;;;;22.84;46.41;101643.72;5041230;28;20115;-84
2021/06/14 09:17:07;;;;;;;12.10;3.97;;;;;;;23.02;46.88;101641.06;5029750;28;20037;-84
2021/06/14 09:19:38;;;;;;;11.55;4.10;;;;;;;23.03;45.22;101642.72;5017851;28;20607;-84
2021/06/14 09:22:18;;;;;;;6.38;3.55;;;;;;;22.98;46.12;101637.06;5018492;28;20115;-84
2021/06/14 09:25:00;;;;;;;7.95;3.70;;;;;;;23.16;45.68;101634.38;5029139;28;20517;-84
2021/06/14 09:27:27;;;;;;;8.75;3.90;;;;;;;23.22;44.05;101629.03;5016256;28;20049;-84
2021/06/14 09:29:52;;;;;;;8.93;4.10;;;;;;;23.27;44.24;101620.97;5037387;28;20038;-84
2021/06/14 09:32:18;;;;;;;8.20;3.67;;;;;;;23.51;42.35;101627.44;5012352;28;20052;-84
2021/06/14 09:34:43;;;;;;;9.80;4.00;;;;;;;23.61;42.25;101625.81;5015786;28;20126;-84
2021/06/14 09:37:11;;;;;;;10.20;3.90;;;;;;;23.67;41.79;101634.16;5022198;28;20041;-85
2021/06/14 09:39:42;;;;;;;10.50;4.28;;;;;;;23.57;41.31;101621.03;5026801;28;20649;-84
2021/06/14 09:42:19;;;;;;;11.77;4.43;;;;;;;23.56;43.20;101619.34;5012867;28;20664;-84
2021/06/14 09:44:47;;;;;;;9.88;4.10;;;;;;;23.72;43.03;101613.25;5017412;28;20045;-85
2021/06/14 09:47:14;;;;;;;6.30;3.10;;;;;;;24.02;42.14;101615.97;5011206;28;20271;-84
2021/06/14 09:49:53;;;;;;;6.15;3.40;;;;;;;23.98;40.09;101617.53;5022335;28;20096;-85
2021/06/14 09:52:23;;;;;;;9.18;4.00;;;;;;;23.91;39.79;101607.72;5021793;28;20041;-84
2021/06/14 09:54:48;;;;;;;7.15;3.92;;;;;;;23.90;39.70;101606.88;5018754;28;20065;-85
2021/06/14 09:57:27;;;;;;;9.50;4.28;;;;;;;23.89;38.83;101607.97;5024012;28;20234;-84
2021/06/14 09:59:53;;;;;;;9.48;3.55;;;;;;;23.90;39.88;101609.63;5013609;28;20044;-85
2021/06/14 10:02:20;;;;;;;8.18;3.58;;;;;;;23.94;40.09;101607.25;5020078;28;20058;-85
2021/06/14 10:04:47;;;;;;;8.55;4.35;;;;;;;23.91;40.02;101616.81;5011591;28;20141;-85
2021/06/14 10:07:15;;;;;;;10.63;3.45;;;;;;;24.04;39.56;101608.38;5011263;28;20686;-85
2021/06/14 10:09:43;;;;;;;8.10;3.67;;;;;;;24.22;38.84;101614.84;5012982;28;20042;-84
2021/06/14 10:12:22;;;;;;;8.80;3.70;;;;;;;24.28;38.78;101616.63;5025829;28;20061;-85
2021/06/14 10:14:58;;;;;;;;;;;;;;;24.33;38.00;101611.28;5014092;28;20042;-84
2021/06/14 10:17:39;;;;;;;6.45;3.25;;;;;;;24.37;37.70;101611.66;5018890;28;20189;-85
2021/06/14 10:20:12;;;;;;;6.93;3.60;;;;;;;24.45;37.39;101605.84;5014400;28;20053;-85
2021/06/14 10:22:38;;;;;;;10.38;3.25;;;;;;;24.46;36.73;101602.88;5022266;28;20053;-84
2021/06/14 10:25:06;;;;;;;6.50;3.22;;;;;;;24.63;38.85;101607.63;5013242;28;20053;-85
2021/06/14 10:27:33;;;;;;;9.07;3.58;;;;;;;24.81;37.38;101610.28;5021969;28;20140;-85
2021/06/14 10:29:59;;;;;;;6.43;3.13;;;;;;;24.86;36.52;101613.16;5015081;28;20045;-85
2021/06/14 10:32:25;;;;;;;7.90;3.33;;;;;;;25.07;37.78;101619.09;5018352;28;20267;-84
2021/06/14 10:34:53;;;;;;;5.97;3.42;;;;;;;25.09;36.54;101606.78;5019298;28;20697;-84
2021/06/14 10:37:21;;;;;;;5.68;3.15;;;;;;;25.09;35.83;101603.19;5021052;28;20131;-84
2021/06/14 10:39:52;;;;;;;7.43;2.87;;;;;;;25.08;35.29;101604.28;5022347;28;20041;-84
2021/06/14 10:42:17;;;;;;;6.28;3.58;;;;;;;25.10;35.81;101602.97;5023362;28;20363;-84
2021/06/14 10:44:43;;;;;;;7.65;3.22;;;;;;;25.18;35.34;101601.78;5016191;28;20060;-84
2021/06/14 10:47:09;;;;;;;7.05;3.25;;;;;;;25.28;34.90;101593.75;5014940;28;20038;-84
2021/06/14 10:49:37;;;;;;;7.40;3.20;;;;;;;25.26;35.02;101592.31;5002175;28;20046;-84
2021/06/14 10:52:04;;;;;;;9.15;3.10;;;;;;;25.35;35.46;101588.97;4994192;28;20101;-84
2021/06/14 10:54:42;;;;;;;7.57;3.05;;;;;;;25.34;38.11;101583.72;4997955;28;20037;-85
2021/06/14 10:57:10;;;;;;;9.13;3.80;;;;;;;25.40;37.08;101586.31;5017762;28;20112;-84
2021/06/14 10:59:43;;;;;;;6.43;2.88;;;;;;;25.41;34.85;101574.25;5011368;28;20053;-85
2021/06/14 11:02:10;;;;;;;6.28;3.00;;;;;;;25.37;35.70;101569.47;5014714;28;20132;-85
2021/06/14 11:04:36;;;;;;;7.47;3.20;;;;;;;25.50;34.79;101562.88;5001868;28;20088;-85
2021/06/14 11:07:04;;;;;;;7.40;2.65;;;;;;;25.60;34.58;101561.13;4945683;28;20063;-84
2021/06/14 11:09:43;;;;;;;8.52;2.88;;;;;;;25.53;34.65;101567.88;4921401;29;20036;-85
2021/06/14 11:12:11;;;;;;;6.85;2.85;;;;;;;25.50;34.42;101562.88;4932001;28;20658;-85
2021/06/14 11:14:44;;;;;;;6.38;2.80;;;;;;;25.66;34.72;101557.44;4924720;28;20055;-86
2021/06/14 11:17:26;;;;;;;5.53;2.95;;;;;;;25.56;35.68;101542.66;4944745;28;20452;-86
2021/06/14 11:20:01;;;;;;;7.90;3.17;;;;;;;25.57;35.35;101544.31;4925843;29;20266;-85
2021/06/14 11:22:34;;;;;;;7.90;3.20;;;;;;;25.79;36.75;101539.78;4921038;28;20158;-86
2021/06/14 11:24:59;;;;;;;7.90;3.15;;;;;;;25.95;34.66;101532.69;4917685;28;20043;-85
2021/06/14 11:27:37;;;;;;;7.47;3.30;;;;;;;26.05;35.47;101543.00;4927646;28;20055;-85